sensor_id;sensor_type;location;lat;lon;timestamp;temperature;humidity
15717;DHT22;7960;50.908;4.204;2023-02-04T00:01:46;9.90;99.90
15717;DHT22;7960;50.908;4.204;2023-02-04T00:04:13;9.90;99.90
15717;DHT22;7960;50.908;4.204;2023-02-04T00:06:40;9.80;99.90
15717;DHT22;7960;50.908;4.204;2023-02-04T00:09:07;9.90;99.90
15717;DHT22;7960;50.908;4.204;2023-02-04T00:11:34;9.90;99.90
15717;DHT22;7960;50.908;4.204;2023-02-04T00:14:01;9.90;99.90
15717;DHT22;7960;50.908;4.204;2023-02-04T00:16:28;9.90;99.90
15717;DHT22;7960;50.908;4.204;2023-02-04T00:18:56;9.80;99.90
15717;DHT22;7960;50.908;4.204;2023-02-04T00:21:23;9.80;99.90
15717;DHT22;7960;50.908;4.204;2023-02-04T00:23:50;9.80;99.90
15717;DHT22;7960;50.908;4.204;2023-02-04T00:26:17;9.80;99.90
15717;DHT22;7960;50.908;4.204;2023-02-04T00:28:43;9.80;99.90
15717;DHT22;7960;50.908;4.204;2023-02-04T00:31:10;9.90;99.90
15717;DHT22;7960;50.908;4.204;2023-02-04T00:33:37;9.80;99.90
15717;DHT22;7960;50.908;4.204;2023-02-04T00:36:08;9.90;99.90
15717;DHT22;7960;50.908;4.204;2023-02-04T00:38:35;9.90;99.90
15717;DHT22;7960;50.908;4.204;2023-02-04T00:41:02;9.90;99.90
15717;DHT22;7960;50.908;4.204;2023-02-04T00:43:29;9.90;99.90
15717;DHT22;7960;50.908;4.204;2023-02-04T00:45:56;9.90;99.90
15717;DHT22;7960;50.908;4.204;2023-02-04T00:48:23;9.80;99.90
15717;DHT22;7960;50.908;4.204;2023-02-04T00:50:50;9.80;99.90
15717;DHT22;7960;50.908;4.204;2023-02-04T00:53:19;9.80;99.90
15717;DHT22;7960;50.908;4.204;2023-02-04T00:55:46;9.70;99.90
15717;DHT22;7960;50.908;4.204;2023-02-04T00:58:13;9.70;99.90
15717;DHT22;7960;50.908;4.204;2023-02-04T01:00:40;9.60;99.90
15717;DHT22;7960;50.908;4.204;2023-02-04T01:03:07;9.60;99.90
15717;DHT22;7960;50.908;4.204;2023-02-04T01:05:33;9.60;99.90
15717;DHT22;7960;50.908;4.204;2023-02-04T01:08:00;9.60;99.90
15717;DHT22;7960;50.908;4.204;2023-02-04T01:10:28;9.60;99.90
15717;DHT22;7960;50.908;4.204;2023-02-04T01:12:55;9.60;99.90
15717;DHT22;7960;50.908;4.204;2023-02-04T01:15:22;9.60;99.90
15717;DHT22;7960;50.908;4.204;2023-02-04T01:17:49;9.60;99.90
15717;DHT22;7960;50.908;4.204;2023-02-04T01:20:16;9.60;99.90
15717;DHT22;7960;50.908;4.204;2023-02-04T01:22:43;9.60;99.90
15717;DHT22;7960;50.908;4.204;2023-02-04T01:25:10;9.60;99.90
15717;DHT22;7960;50.908;4.204;2023-02-04T01:27:38;9.60;99.90
15717;DHT22;7960;50.908;4.204;2023-02-04T01:30:06;9.50;99.90
15717;DHT22;7960;50.908;4.204;2023-02-04T01:32:33;9.50;99.90
15717;DHT22;7960;50.908;4.204;2023-02-04T01:34:59;9.50;99.90
15717;DHT22;7960;50.908;4.204;2023-02-04T01:37:26;9.50;99.90
15717;DHT22;7960;50.908;4.204;2023-02-04T01:39:53;9.60;99.90
15717;DHT22;7960;50.908;4.204;2023-02-04T01:42:20;9.60;99.90
15717;DHT22;7960;50.908;4.204;2023-02-04T01:44:49;9.60;99.90
15717;DHT22;7960;50.908;4.204;2023-02-04T01:47:16;9.60;99.90
15717;DHT22;7960;50.908;4.204;2023-02-04T01:49:43;9.60;99.90
15717;DHT22;7960;50.908;4.204;2023-02-04T01:52:10;9.50;99.90
15717;DHT22;7960;50.908;4.204;2023-02-04T01:54:38;9.60;99.90
15717;DHT22;7960;50.908;4.204;2023-02-04T01:57:08;9.60;99.90
15717;DHT22;7960;50.908;4.204;2023-02-04T01:59:36;9.60;99.90
15717;DHT22;7960;50.908;4.204;2023-02-04T02:02:42;9.60;99.90
15717;DHT22;7960;50.908;4.204;2023-02-04T02:05:11;9.60;99.90
15717;DHT22;7960;50.908;4.204;2023-02-04T02:07:38;9.60;99.90
15717;DHT22;7960;50.908;4.204;2023-02-04T02:10:07;9.70;99.90
15717;DHT22;7960;50.908;4.204;2023-02-04T02:12:34;9.60;99.90
15717;DHT22;7960;50.908;4.204;2023-02-04T02:15:01;9.70;99.90
15717;DHT22;7960;50.908;4.204;2023-02-04T02:17:28;9.70;99.90
15717;DHT22;7960;50.908;4.204;2023-02-04T02:19:56;9.70;99.90
15717;DHT22;7960;50.908;4.204;2023-02-04T02:22:26;9.60;99.90
15717;DHT22;7960;50.908;4.204;2023-02-04T02:24:55;9.60;99.90
15717;DHT22;7960;50.908;4.204;2023-02-04T02:27:22;9.60;99.90
15717;DHT22;7960;50.908;4.204;2023-02-04T02:29:49;9.60;99.90
15717;DHT22;7960;50.908;4.204;2023-02-04T02:32:18;9.60;99.90
15717;DHT22;7960;50.908;4.204;2023-02-04T02:34:45;9.60;99.90
15717;DHT22;7960;50.908;4.204;2023-02-04T02:37:13;9.60;99.90
15717;DHT22;7960;50.908;4.204;2023-02-04T02:39:41;9.70;99.90
15717;DHT22;7960;50.908;4.204;2023-02-04T02:42:14;9.60;99.90
15717;DHT22;7960;50.908;4.204;2023-02-04T02:44:42;9.60;99.90
15717;DHT22;7960;50.908;4.204;2023-02-04T02:47:12;9.60;99.90
15717;DHT22;7960;50.908;4.204;2023-02-04T02:49:41;9.60;99.90
15717;DHT22;7960;50.908;4.204;2023-02-04T02:52:10;9.60;99.90
15717;DHT22;7960;50.908;4.204;2023-02-04T02:54:37;9.50;99.90
15717;DHT22;7960;50.908;4.204;2023-02-04T02:57:11;9.50;99.90
15717;DHT22;7960;50.908;4.204;2023-02-04T02:59:39;9.60;99.90
15717;DHT22;7960;50.908;4.204;2023-02-04T03:02:07;9.60;99.90
15717;DHT22;7960;50.908;4.204;2023-02-04T03:04:37;9.60;99.90
15717;DHT22;7960;50.908;4.204;2023-02-04T03:07:06;9.60;99.90
15717;DHT22;7960;50.908;4.204;2023-02-04T03:09:33;9.60;99.90
15717;DHT22;7960;50.908;4.204;2023-02-04T03:12:00;9.60;99.90
15717;DHT22;7960;50.908;4.204;2023-02-04T03:14:29;9.60;99.90
15717;DHT22;7960;50.908;4.204;2023-02-04T03:16:57;9.50;99.90
15717;DHT22;7960;50.908;4.204;2023-02-04T03:19:25;9.50;99.90
15717;DHT22;7960;50.908;4.204;2023-02-04T03:21:52;9.50;99.90
15717;DHT22;7960;50.908;4.204;2023-02-04T03:24:19;9.50;99.90
15717;DHT22;7960;50.908;4.204;2023-02-04T03:26:46;9.50;99.90
15717;DHT22;7960;50.908;4.204;2023-02-04T03:29:13;9.50;99.90
15717;DHT22;7960;50.908;4.204;2023-02-04T03:31:42;9.50;99.90
15717;DHT22;7960;50.908;4.204;2023-02-04T03:34:09;9.50;99.90
15717;DHT22;7960;50.908;4.204;2023-02-04T03:36:35;9.50;99.90
15717;DHT22;7960;50.908;4.204;2023-02-04T03:39:02;9.60;99.90
15717;DHT22;7960;50.908;4.204;2023-02-04T03:41:30;9.60;99.90
15717;DHT22;7960;50.908;4.204;2023-02-04T03:43:56;9.60;99.90
15717;DHT22;7960;50.908;4.204;2023-02-04T03:46:23;9.60;99.90
15717;DHT22;7960;50.908;4.204;2023-02-04T03:48:51;9.60;99.90
15717;DHT22;7960;50.908;4.204;2023-02-04T03:51:18;9.60;99.90
15717;DHT22;7960;50.908;4.204;2023-02-04T03:53:45;9.60;99.90
15717;DHT22;7960;50.908;4.204;2023-02-04T03:56:12;9.60;99.90
15717;DHT22;7960;50.908;4.204;2023-02-04T03:58:38;9.70;99.90
15717;DHT22;7960;50.908;4.204;2023-02-04T04:01:05;9.70;99.90
15717;DHT22;7960;50.908;4.204;2023-02-04T04:03:32;9.60;99.90
15717;DHT22;7960;50.908;4.204;2023-02-04T04:06:00;9.70;99.90
15717;DHT22;7960;50.908;4.204;2023-02-04T04:08:29;9.60;99.90
15717;DHT22;7960;50.908;4.204;2023-02-04T04:10:56;9.60;99.90
15717;DHT22;7960;50.908;4.204;2023-02-04T04:13:23;9.60;99.90
15717;DHT22;7960;50.908;4.204;2023-02-04T04:15:50;9.50;99.90
15717;DHT22;7960;50.908;4.204;2023-02-04T04:18:16;9.50;99.90
15717;DHT22;7960;50.908;4.204;2023-02-04T04:20:43;9.50;99.90
15717;DHT22;7960;50.908;4.204;2023-02-04T04:23:11;9.50;99.90
15717;DHT22;7960;50.908;4.204;2023-02-04T04:25:38;9.50;99.90
15717;DHT22;7960;50.908;4.204;2023-02-04T04:28:05;9.40;99.90
15717;DHT22;7960;50.908;4.204;2023-02-04T04:30:32;9.50;99.90
15717;DHT22;7960;50.908;4.204;2023-02-04T04:32:59;9.50;99.90
15717;DHT22;7960;50.908;4.204;2023-02-04T04:35:26;9.50;99.90
15717;DHT22;7960;50.908;4.204;2023-02-04T04:37:52;9.50;99.90
15717;DHT22;7960;50.908;4.204;2023-02-04T04:40:23;9.50;99.90
15717;DHT22;7960;50.908;4.204;2023-02-04T04:42:50;9.50;99.90
15717;DHT22;7960;50.908;4.204;2023-02-04T04:45:17;9.50;99.90
15717;DHT22;7960;50.908;4.204;2023-02-04T04:47:44;9.50;99.90
15717;DHT22;7960;50.908;4.204;2023-02-04T04:50:11;9.60;99.90
15717;DHT22;7960;50.908;4.204;2023-02-04T04:52:40;9.50;99.90
15717;DHT22;7960;50.908;4.204;2023-02-04T04:55:08;9.60;99.90
15717;DHT22;7960;50.908;4.204;2023-02-04T04:57:36;9.50;99.90
15717;DHT22;7960;50.908;4.204;2023-02-04T05:00:03;9.50;99.90
15717;DHT22;7960;50.908;4.204;2023-02-04T05:02:30;9.60;99.90
15717;DHT22;7960;50.908;4.204;2023-02-04T05:04:57;9.50;99.90
15717;DHT22;7960;50.908;4.204;2023-02-04T05:07:24;9.50;99.90
15717;DHT22;7960;50.908;4.204;2023-02-04T05:09:52;9.40;99.90
15717;DHT22;7960;50.908;4.204;2023-02-04T05:12:18;9.40;99.90
15717;DHT22;7960;50.908;4.204;2023-02-04T05:14:47;9.40;99.90
15717;DHT22;7960;50.908;4.204;2023-02-04T05:17:13;9.40;99.90
15717;DHT22;7960;50.908;4.204;2023-02-04T05:19:40;9.40;99.90
15717;DHT22;7960;50.908;4.204;2023-02-04T05:22:07;9.50;99.90
15717;DHT22;7960;50.908;4.204;2023-02-04T05:24:34;9.50;99.90
15717;DHT22;7960;50.908;4.204;2023-02-04T05:27:01;9.50;99.90
15717;DHT22;7960;50.908;4.204;2023-02-04T05:29:27;9.60;99.90
15717;DHT22;7960;50.908;4.204;2023-02-04T05:31:56;9.50;99.90
15717;DHT22;7960;50.908;4.204;2023-02-04T05:34:22;9.50;99.90
15717;DHT22;7960;50.908;4.204;2023-02-04T05:36:49;9.40;99.90
15717;DHT22;7960;50.908;4.204;2023-02-04T05:39:16;9.40;99.90
15717;DHT22;7960;50.908;4.204;2023-02-04T05:41:43;9.40;99.90
15717;DHT22;7960;50.908;4.204;2023-02-04T05:44:10;9.50;99.90
15717;DHT22;7960;50.908;4.204;2023-02-04T05:46:36;9.50;99.90
15717;DHT22;7960;50.908;4.204;2023-02-04T05:49:05;9.50;99.90
15717;DHT22;7960;50.908;4.204;2023-02-04T05:51:32;9.40;99.90
15717;DHT22;7960;50.908;4.204;2023-02-04T05:53:59;9.40;99.90
15717;DHT22;7960;50.908;4.204;2023-02-04T05:56:26;9.40;99.90
15717;DHT22;7960;50.908;4.204;2023-02-04T05:58:53;9.40;99.90
15717;DHT22;7960;50.908;4.204;2023-02-04T06:01:19;9.30;99.90
15717;DHT22;7960;50.908;4.204;2023-02-04T06:03:46;9.40;99.90
15717;DHT22;7960;50.908;4.204;2023-02-04T06:06:14;9.40;99.90
15717;DHT22;7960;50.908;4.204;2023-02-04T06:08:41;9.40;99.90
15717;DHT22;7960;50.908;4.204;2023-02-04T06:11:08;9.40;99.90
15717;DHT22;7960;50.908;4.204;2023-02-04T06:13:35;9.30;99.90
15717;DHT22;7960;50.908;4.204;2023-02-04T06:16:01;9.40;99.90
15717;DHT22;7960;50.908;4.204;2023-02-04T06:18:28;9.40;99.90
15717;DHT22;7960;50.908;4.204;2023-02-04T06:20:55;9.40;99.90
15717;DHT22;7960;50.908;4.204;2023-02-04T06:23:23;9.30;99.90
15717;DHT22;7960;50.908;4.204;2023-02-04T06:25:50;9.30;99.90
15717;DHT22;7960;50.908;4.204;2023-02-04T06:28:17;9.40;99.90
15717;DHT22;7960;50.908;4.204;2023-02-04T06:30:44;9.40;99.90
15717;DHT22;7960;50.908;4.204;2023-02-04T06:33:10;9.40;99.90
15717;DHT22;7960;50.908;4.204;2023-02-04T06:35:37;9.30;99.90
15717;DHT22;7960;50.908;4.204;2023-02-04T06:38:04;9.20;99.90
15717;DHT22;7960;50.908;4.204;2023-02-04T06:40:32;9.30;99.90
15717;DHT22;7960;50.908;4.204;2023-02-04T06:42:59;9.40;99.90
15717;DHT22;7960;50.908;4.204;2023-02-04T06:45:26;9.40;99.90
15717;DHT22;7960;50.908;4.204;2023-02-04T06:47:52;9.30;99.90
15717;DHT22;7960;50.908;4.204;2023-02-04T06:50:19;9.40;99.90
15717;DHT22;7960;50.908;4.204;2023-02-04T06:52:46;9.40;99.90
15717;DHT22;7960;50.908;4.204;2023-02-04T06:55:14;9.30;99.90
15717;DHT22;7960;50.908;4.204;2023-02-04T06:57:43;9.30;99.90
15717;DHT22;7960;50.908;4.204;2023-02-04T07:00:11;9.30;99.90
15717;DHT22;7960;50.908;4.204;2023-02-04T07:02:38;9.30;99.90
15717;DHT22;7960;50.908;4.204;2023-02-04T07:05:07;9.30;99.90
15717;DHT22;7960;50.908;4.204;2023-02-04T07:07:34;9.20;99.90
15717;DHT22;7960;50.908;4.204;2023-02-04T07:10:01;9.30;99.90
15717;DHT22;7960;50.908;4.204;2023-02-04T07:12:28;9.20;99.90
15717;DHT22;7960;50.908;4.204;2023-02-04T07:14:56;9.20;99.90
15717;DHT22;7960;50.908;4.204;2023-02-04T07:17:23;9.10;99.90
15717;DHT22;7960;50.908;4.204;2023-02-04T07:19:50;9.10;99.90
15717;DHT22;7960;50.908;4.204;2023-02-04T07:22:17;9.10;99.90
15717;DHT22;7960;50.908;4.204;2023-02-04T07:24:44;9.20;99.90
15717;DHT22;7960;50.908;4.204;2023-02-04T07:27:11;9.20;99.90
15717;DHT22;7960;50.908;4.204;2023-02-04T07:29:37;9.20;99.90
15717;DHT22;7960;50.908;4.204;2023-02-04T07:32:06;9.20;99.90
15717;DHT22;7960;50.908;4.204;2023-02-04T07:34:33;9.30;99.90
15717;DHT22;7960;50.908;4.204;2023-02-04T07:36:59;9.20;99.90
15717;DHT22;7960;50.908;4.204;2023-02-04T07:39:26;9.10;99.90
15717;DHT22;7960;50.908;4.204;2023-02-04T07:41:53;9.20;99.90
15717;DHT22;7960;50.908;4.204;2023-02-04T07:44:20;9.10;99.90
15717;DHT22;7960;50.908;4.204;2023-02-04T07:46:47;9.20;99.90
15717;DHT22;7960;50.908;4.204;2023-02-04T07:49:15;9.20;99.90
15717;DHT22;7960;50.908;4.204;2023-02-04T07:51:42;9.20;99.90
15717;DHT22;7960;50.908;4.204;2023-02-04T07:54:09;9.10;99.90
15717;DHT22;7960;50.908;4.204;2023-02-04T07:56:35;9.20;99.90
15717;DHT22;7960;50.908;4.204;2023-02-04T07:59:02;9.30;99.90
15717;DHT22;7960;50.908;4.204;2023-02-04T08:01:29;9.30;99.90
15717;DHT22;7960;50.908;4.204;2023-02-04T08:03:56;9.30;99.90
15717;DHT22;7960;50.908;4.204;2023-02-04T08:06:24;9.20;99.90
15717;DHT22;7960;50.908;4.204;2023-02-04T08:08:51;9.10;99.90
15717;DHT22;7960;50.908;4.204;2023-02-04T08:11:18;9.20;99.90
15717;DHT22;7960;50.908;4.204;2023-02-04T08:13:45;9.30;99.90
15717;DHT22;7960;50.908;4.204;2023-02-04T08:16:11;9.30;99.90
15717;DHT22;7960;50.908;4.204;2023-02-04T08:18:38;9.20;99.90
15717;DHT22;7960;50.908;4.204;2023-02-04T08:21:05;9.20;99.90
15717;DHT22;7960;50.908;4.204;2023-02-04T08:23:33;9.30;99.90
15717;DHT22;7960;50.908;4.204;2023-02-04T08:26:06;9.30;99.90
15717;DHT22;7960;50.908;4.204;2023-02-04T08:28:33;9.20;99.90
15717;DHT22;7960;50.908;4.204;2023-02-04T08:31:00;9.10;99.90
15717;DHT22;7960;50.908;4.204;2023-02-04T08:33:27;9.10;99.90
15717;DHT22;7960;50.908;4.204;2023-02-04T08:35:53;9.30;99.90
15717;DHT22;7960;50.908;4.204;2023-02-04T08:38:20;9.30;99.90
15717;DHT22;7960;50.908;4.204;2023-02-04T08:40:48;9.30;99.90
15717;DHT22;7960;50.908;4.204;2023-02-04T08:43:15;9.20;99.90
15717;DHT22;7960;50.908;4.204;2023-02-04T08:45:42;9.10;99.90
15717;DHT22;7960;50.908;4.204;2023-02-04T08:48:09;9.30;99.90
15717;DHT22;7960;50.908;4.204;2023-02-04T08:50:36;9.30;99.90
15717;DHT22;7960;50.908;4.204;2023-02-04T08:53:03;9.30;99.90
15717;DHT22;7960;50.908;4.204;2023-02-04T08:55:30;9.40;99.90
15717;DHT22;7960;50.908;4.204;2023-02-04T08:57:58;9.30;99.90
15717;DHT22;7960;50.908;4.204;2023-02-04T09:00:25;9.30;99.90
15717;DHT22;7960;50.908;4.204;2023-02-04T09:02:53;9.20;99.90
15717;DHT22;7960;50.908;4.204;2023-02-04T09:05:20;9.30;99.90
15717;DHT22;7960;50.908;4.204;2023-02-04T09:07:47;9.30;99.90
15717;DHT22;7960;50.908;4.204;2023-02-04T09:10:14;9.20;99.90
15717;DHT22;7960;50.908;4.204;2023-02-04T09:12:41;9.30;99.90
15717;DHT22;7960;50.908;4.204;2023-02-04T09:15:10;9.30;99.90
15717;DHT22;7960;50.908;4.204;2023-02-04T09:17:37;9.30;99.90
15717;DHT22;7960;50.908;4.204;2023-02-04T09:20:05;9.30;99.90
15717;DHT22;7960;50.908;4.204;2023-02-04T09:22:32;9.30;99.90
15717;DHT22;7960;50.908;4.204;2023-02-04T09:25:01;9.40;99.90
15717;DHT22;7960;50.908;4.204;2023-02-04T09:27:28;9.40;99.90
15717;DHT22;7960;50.908;4.204;2023-02-04T09:29:55;9.30;99.90
15717;DHT22;7960;50.908;4.204;2023-02-04T09:32:23;9.40;99.90
15717;DHT22;7960;50.908;4.204;2023-02-04T09:34:51;9.40;99.90
15717;DHT22;7960;50.908;4.204;2023-02-04T09:37:18;9.50;99.90
15717;DHT22;7960;50.908;4.204;2023-02-04T09:39:45;9.50;99.90
15717;DHT22;7960;50.908;4.204;2023-02-04T09:42:13;9.40;99.90
15717;DHT22;7960;50.908;4.204;2023-02-04T09:44:40;9.50;99.90
15717;DHT22;7960;50.908;4.204;2023-02-04T09:47:10;9.50;99.90
15717;DHT22;7960;50.908;4.204;2023-02-04T09:49:43;9.50;99.90
15717;DHT22;7960;50.908;4.204;2023-02-04T09:52:12;9.50;99.90
15717;DHT22;7960;50.908;4.204;2023-02-04T09:54:40;9.60;99.90
15717;DHT22;7960;50.908;4.204;2023-02-04T09:57:13;9.50;99.90
15717;DHT22;7960;50.908;4.204;2023-02-04T09:59:41;9.50;99.90
15717;DHT22;7960;50.908;4.204;2023-02-04T10:02:18;9.50;99.90
15717;DHT22;7960;50.908;4.204;2023-02-04T10:04:48;9.50;99.90
15717;DHT22;7960;50.908;4.204;2023-02-04T10:07:17;9.50;99.90
15717;DHT22;7960;50.908;4.204;2023-02-04T10:09:47;9.50;99.90
15717;DHT22;7960;50.908;4.204;2023-02-04T10:12:15;9.50;99.90
15717;DHT22;7960;50.908;4.204;2023-02-04T10:14:42;9.60;99.90
15717;DHT22;7960;50.908;4.204;2023-02-04T10:17:10;9.60;99.90
15717;DHT22;7960;50.908;4.204;2023-02-04T10:19:38;9.60;99.90
15717;DHT22;7960;50.908;4.204;2023-02-04T10:22:14;9.70;99.90
15717;DHT22;7960;50.908;4.204;2023-02-04T10:24:42;9.70;99.90
15717;DHT22;7960;50.908;4.204;2023-02-04T10:27:09;9.80;99.90
15717;DHT22;7960;50.908;4.204;2023-02-04T10:29:36;9.90;99.90
15717;DHT22;7960;50.908;4.204;2023-02-04T10:32:04;9.90;99.90
15717;DHT22;7960;50.908;4.204;2023-02-04T10:34:36;10.00;99.90
15717;DHT22;7960;50.908;4.204;2023-02-04T10:37:18;9.90;99.90
15717;DHT22;7960;50.908;4.204;2023-02-04T10:39:45;10.00;99.90
15717;DHT22;7960;50.908;4.204;2023-02-04T10:42:20;10.00;99.90
15717;DHT22;7960;50.908;4.204;2023-02-04T10:44:47;10.00;99.90
15717;DHT22;7960;50.908;4.204;2023-02-04T10:47:16;10.10;99.90
15717;DHT22;7960;50.908;4.204;2023-02-04T10:49:51;10.00;99.90
15717;DHT22;7960;50.908;4.204;2023-02-04T10:52:21;10.00;99.90
15717;DHT22;7960;50.908;4.204;2023-02-04T10:54:49;10.00;99.90
15717;DHT22;7960;50.908;4.204;2023-02-04T10:57:18;10.00;99.90
15717;DHT22;7960;50.908;4.204;2023-02-04T10:59:47;10.10;99.90
15717;DHT22;7960;50.908;4.204;2023-02-04T11:02:32;10.20;99.90
15717;DHT22;7960;50.908;4.204;2023-02-04T11:05:00;10.20;99.90
15717;DHT22;7960;50.908;4.204;2023-02-04T11:07:29;10.40;99.90
15717;DHT22;7960;50.908;4.204;2023-02-04T11:09:56;10.50;99.90
15717;DHT22;7960;50.908;4.204;2023-02-04T11:12:36;10.40;99.90
15717;DHT22;7960;50.908;4.204;2023-02-04T11:15:04;10.60;99.90
15717;DHT22;7960;50.908;4.204;2023-02-04T11:17:34;10.60;99.90
15717;DHT22;7960;50.908;4.204;2023-02-04T11:20:13;10.60;99.90
15717;DHT22;7960;50.908;4.204;2023-02-04T11:22:43;10.70;99.90
15717;DHT22;7960;50.908;4.204;2023-02-04T11:25:29;10.70;99.90
15717;DHT22;7960;50.908;4.204;2023-02-04T11:27:56;10.50;99.90
15717;DHT22;7960;50.908;4.204;2023-02-04T11:30:23;10.60;99.90
15717;DHT22;7960;50.908;4.204;2023-02-04T11:33:00;10.60;99.90
15717;DHT22;7960;50.908;4.204;2023-02-04T11:35:28;10.70;99.90
15717;DHT22;7960;50.908;4.204;2023-02-04T11:37:57;10.70;99.90
15717;DHT22;7960;50.908;4.204;2023-02-04T11:40:27;10.90;99.90
15717;DHT22;7960;50.908;4.204;2023-02-04T11:42:58;10.90;99.90
15717;DHT22;7960;50.908;4.204;2023-02-04T11:45:28;10.80;99.90
15717;DHT22;7960;50.908;4.204;2023-02-04T11:47:58;10.80;99.90
15717;DHT22;7960;50.908;4.204;2023-02-04T11:50:27;11.00;99.90
15717;DHT22;7960;50.908;4.204;2023-02-04T11:52:56;11.20;99.90
15717;DHT22;7960;50.908;4.204;2023-02-04T11:55:23;11.40;99.90
15717;DHT22;7960;50.908;4.204;2023-02-04T11:57:52;11.50;99.90
15717;DHT22;7960;50.908;4.204;2023-02-04T12:00:20;11.30;99.90
15717;DHT22;7960;50.908;4.204;2023-02-04T12:02:49;11.40;99.90
15717;DHT22;7960;50.908;4.204;2023-02-04T12:05:17;11.30;99.90
15717;DHT22;7960;50.908;4.204;2023-02-04T12:07:46;11.20;99.90
15717;DHT22;7960;50.908;4.204;2023-02-04T12:10:23;11.10;99.90
15717;DHT22;7960;50.908;4.204;2023-02-04T12:12:52;11.00;99.90
15717;DHT22;7960;50.908;4.204;2023-02-04T12:15:24;11.00;99.90
15717;DHT22;7960;50.908;4.204;2023-02-04T12:18:01;11.10;99.90
15717;DHT22;7960;50.908;4.204;2023-02-04T12:20:29;11.10;99.90
15717;DHT22;7960;50.908;4.204;2023-02-04T12:22:56;11.20;99.90
15717;DHT22;7960;50.908;4.204;2023-02-04T12:25:24;11.10;99.90
15717;DHT22;7960;50.908;4.204;2023-02-04T12:27:51;11.10;99.90
15717;DHT22;7960;50.908;4.204;2023-02-04T12:30:20;11.30;99.90
15717;DHT22;7960;50.908;4.204;2023-02-04T12:32:47;11.40;99.90
15717;DHT22;7960;50.908;4.204;2023-02-04T12:35:14;11.50;99.90
15717;DHT22;7960;50.908;4.204;2023-02-04T12:37:41;11.60;99.90
15717;DHT22;7960;50.908;4.204;2023-02-04T12:40:12;11.60;99.90
15717;DHT22;7960;50.908;4.204;2023-02-04T12:42:41;11.60;99.90
15717;DHT22;7960;50.908;4.204;2023-02-04T12:45:09;11.60;99.90
15717;DHT22;7960;50.908;4.204;2023-02-04T12:47:37;11.60;99.90
15717;DHT22;7960;50.908;4.204;2023-02-04T12:50:04;11.60;99.90
15717;DHT22;7960;50.908;4.204;2023-02-04T12:52:32;11.50;99.90
15717;DHT22;7960;50.908;4.204;2023-02-04T12:54:58;11.60;99.90
15717;DHT22;7960;50.908;4.204;2023-02-04T12:57:25;11.40;99.90
15717;DHT22;7960;50.908;4.204;2023-02-04T12:59:54;11.40;99.90
15717;DHT22;7960;50.908;4.204;2023-02-04T13:02:22;11.40;99.90
15717;DHT22;7960;50.908;4.204;2023-02-04T13:04:49;11.40;99.90
15717;DHT22;7960;50.908;4.204;2023-02-04T13:07:16;11.20;99.90
15717;DHT22;7960;50.908;4.204;2023-02-04T13:09:43;11.20;99.90
15717;DHT22;7960;50.908;4.204;2023-02-04T13:12:10;11.30;99.90
15717;DHT22;7960;50.908;4.204;2023-02-04T13:14:38;11.30;99.90
15717;DHT22;7960;50.908;4.204;2023-02-04T13:17:07;11.20;99.90
15717;DHT22;7960;50.908;4.204;2023-02-04T13:19:34;11.10;99.90
15717;DHT22;7960;50.908;4.204;2023-02-04T13:22:01;11.20;99.90
15717;DHT22;7960;50.908;4.204;2023-02-04T13:24:28;11.20;99.90
15717;DHT22;7960;50.908;4.204;2023-02-04T13:26:55;11.20;99.90
15717;DHT22;7960;50.908;4.204;2023-02-04T13:29:22;11.10;99.90
15717;DHT22;7960;50.908;4.204;2023-02-04T13:31:49;11.10;99.90
15717;DHT22;7960;50.908;4.204;2023-02-04T13:34:18;11.20;99.90
15717;DHT22;7960;50.908;4.204;2023-02-04T13:36:45;11.20;99.90
15717;DHT22;7960;50.908;4.204;2023-02-04T13:39:13;11.20;99.90
15717;DHT22;7960;50.908;4.204;2023-02-04T13:41:39;11.10;99.90
15717;DHT22;7960;50.908;4.204;2023-02-04T13:44:06;11.10;99.90
15717;DHT22;7960;50.908;4.204;2023-02-04T13:46:33;11.10;99.90
15717;DHT22;7960;50.908;4.204;2023-02-04T13:49:00;11.00;99.90
15717;DHT22;7960;50.908;4.204;2023-02-04T13:51:29;11.00;99.90
15717;DHT22;7960;50.908;4.204;2023-02-04T13:53:56;11.00;99.90
15717;DHT22;7960;50.908;4.204;2023-02-04T13:56:24;11.10;99.90
15717;DHT22;7960;50.908;4.204;2023-02-04T13:58:51;11.00;99.90
15717;DHT22;7960;50.908;4.204;2023-02-04T14:01:18;11.10;99.90
15717;DHT22;7960;50.908;4.204;2023-02-04T14:03:45;11.10;99.90
15717;DHT22;7960;50.908;4.204;2023-02-04T14:06:12;11.00;99.90
15717;DHT22;7960;50.908;4.204;2023-02-04T14:08:41;11.20;99.90
15717;DHT22;7960;50.908;4.204;2023-02-04T14:11:07;10.90;99.90
15717;DHT22;7960;50.908;4.204;2023-02-04T14:13:34;11.10;99.90
15717;DHT22;7960;50.908;4.204;2023-02-04T14:16:01;11.10;99.90
15717;DHT22;7960;50.908;4.204;2023-02-04T14:18:28;11.10;99.90
15717;DHT22;7960;50.908;4.204;2023-02-04T14:20:55;11.10;99.90
15717;DHT22;7960;50.908;4.204;2023-02-04T14:23:22;11.20;99.90
15717;DHT22;7960;50.908;4.204;2023-02-04T14:25:50;11.20;99.90
15717;DHT22;7960;50.908;4.204;2023-02-04T14:28:17;11.30;99.90
15717;DHT22;7960;50.908;4.204;2023-02-04T14:30:44;11.30;99.90
15717;DHT22;7960;50.908;4.204;2023-02-04T14:33:11;11.40;99.90
15717;DHT22;7960;50.908;4.204;2023-02-04T14:35:40;11.40;99.90
15717;DHT22;7960;50.908;4.204;2023-02-04T14:38:25;11.40;99.90
15717;DHT22;7960;50.908;4.204;2023-02-04T14:40:55;11.40;99.90
15717;DHT22;7960;50.908;4.204;2023-02-04T14:43:23;11.40;99.90
15717;DHT22;7960;50.908;4.204;2023-02-04T14:45:49;11.40;99.90
15717;DHT22;7960;50.908;4.204;2023-02-04T14:48:16;11.30;99.90
15717;DHT22;7960;50.908;4.204;2023-02-04T14:50:43;11.40;99.90
15717;DHT22;7960;50.908;4.204;2023-02-04T14:53:10;11.30;99.90
15717;DHT22;7960;50.908;4.204;2023-02-04T14:55:38;11.30;99.90
15717;DHT22;7960;50.908;4.204;2023-02-04T14:58:05;11.30;99.90
15717;DHT22;7960;50.908;4.204;2023-02-04T15:00:32;11.20;99.90
15717;DHT22;7960;50.908;4.204;2023-02-04T15:02:58;11.10;99.90
15717;DHT22;7960;50.908;4.204;2023-02-04T15:05:25;11.10;99.90
15717;DHT22;7960;50.908;4.204;2023-02-04T15:07:52;11.10;99.90
15717;DHT22;7960;50.908;4.204;2023-02-04T15:10:19;11.00;99.90
15717;DHT22;7960;50.908;4.204;2023-02-04T15:12:48;11.00;99.90
15717;DHT22;7960;50.908;4.204;2023-02-04T15:15:16;11.00;99.90
15717;DHT22;7960;50.908;4.204;2023-02-04T15:17:42;10.90;99.90
15717;DHT22;7960;50.908;4.204;2023-02-04T15:20:10;11.00;99.90
15717;DHT22;7960;50.908;4.204;2023-02-04T15:22:37;11.10;99.90
15717;DHT22;7960;50.908;4.204;2023-02-04T15:25:04;10.90;99.90
15717;DHT22;7960;50.908;4.204;2023-02-04T15:27:31;11.00;99.90
15717;DHT22;7960;50.908;4.204;2023-02-04T15:29:59;10.90;99.90
15717;DHT22;7960;50.908;4.204;2023-02-04T15:32:26;10.80;99.90
15717;DHT22;7960;50.908;4.204;2023-02-04T15:34:53;10.90;99.90
15717;DHT22;7960;50.908;4.204;2023-02-04T15:37:20;10.90;99.90
15717;DHT22;7960;50.908;4.204;2023-02-04T15:39:46;10.80;99.90
15717;DHT22;7960;50.908;4.204;2023-02-04T15:42:13;10.70;99.90
15717;DHT22;7960;50.908;4.204;2023-02-04T15:44:40;10.60;99.90
15717;DHT22;7960;50.908;4.204;2023-02-04T15:47:08;10.70;99.90
15717;DHT22;7960;50.908;4.204;2023-02-04T15:49:35;10.70;99.90
15717;DHT22;7960;50.908;4.204;2023-02-04T15:52:02;10.80;99.90
15717;DHT22;7960;50.908;4.204;2023-02-04T15:54:29;10.70;99.90
15717;DHT22;7960;50.908;4.204;2023-02-04T15:56:57;10.80;99.90
15717;DHT22;7960;50.908;4.204;2023-02-04T15:59:24;10.70;99.90
15717;DHT22;7960;50.908;4.204;2023-02-04T16:01:50;10.50;99.90